Time;durP1;ratioP1;P1;durP2;ratioP2;P2;SDS_P1;SDS_P2;PMS_P1;PMS_P2;Temp;Humidity;BMP_temperature;BMP_pressure;BME280_temperature;BME280_humidity;BME280_pressure;Samples;Min_cycle;Max_cycle;Signal;HPM_P1;HPM_P2
2022/12/24 00:01:00;;;;;;;;;;;11.30;99.90;;;;;;6247992;23;19900;-72
2022/12/24 00:03:26;;;;;;;;;;;11.30;99.90;;;;;;6247369;23;19953;-72
2022/12/24 00:05:51;;;;;;;;;;;11.50;99.90;;;;;;6247313;23;19899;-74
2022/12/24 00:08:17;;;;;;;;;;;11.60;99.90;;;;;;6247199;23;19911;-74
2022/12/24 00:10:43;;;;;;;;;;;11.50;99.90;;;;;;6247598;23;19954;-74
2022/12/24 00:13:08;;;;;;;;;;;11.50;99.90;;;;;;6247197;23;19906;-73
2022/12/24 00:15:33;;;;;;;;;;;11.40;99.90;;;;;;6247212;23;19900;-72
2022/12/24 00:17:59;;;;;;;;;;;11.30;99.90;;;;;;6247491;23;20273;-73
2022/12/24 00:20:24;;;;;;;;;;;11.40;99.90;;;;;;6246844;23;19899;-75
2022/12/24 00:22:50;;;;;;;;;;;11.50;99.90;;;;;;6247173;23;19900;-73
2022/12/24 00:25:15;;;;;;;;;;;11.50;99.90;;;;;;6247156;22;19948;-72
2022/12/24 00:27:41;;;;;;;;;;;11.40;99.90;;;;;;6247013;23;19903;-73
2022/12/24 00:30:07;;;;;;;;;;;11.40;99.90;;;;;;6247422;23;20233;-73
2022/12/24 00:32:33;;;;;;;;;;;11.40;99.90;;;;;;6219479;23;20245;-72
2022/12/24 00:34:58;;;;;;;;;;;11.40;99.90;;;;;;6247382;23;19900;-74
2022/12/24 00:37:24;;;;;;;;;;;11.50;99.90;;;;;;6220124;23;19899;-75
2022/12/24 00:39:49;;;;;;;;;;;11.40;99.90;;;;;;6247308;23;19926;-73
2022/12/24 00:42:15;;;;;;;;;;;11.30;99.90;;;;;;6246897;23;19937;-73
2022/12/24 00:44:40;;;;;;;;;;;11.30;99.90;;;;;;6246959;23;19983;-73
2022/12/24 00:47:06;;;;;;;;;;;11.40;99.90;;;;;;6246828;23;19911;-73
2022/12/24 00:49:31;;;;;;;;;;;11.50;99.90;;;;;;6246849;23;19926;-72
2022/12/24 00:51:57;;;;;;;;;;;11.50;99.90;;;;;;6246884;23;19904;-74
2022/12/24 00:54:22;;;;;;;;;;;11.40;99.90;;;;;;6247148;23;19947;-72
2022/12/24 00:56:48;;;;;;;;;;;11.40;99.90;;;;;;6246860;23;20266;-72
2022/12/24 00:59:13;;;;;;;;;;;11.40;99.90;;;;;;6247111;23;19900;-74
2022/12/24 01:01:39;;;;;;;;;;;11.40;99.90;;;;;;6246761;23;19978;-74
2022/12/24 01:06:48;;;;;;;;;;;11.50;99.90;;;;;;6247071;23;19906;-73
2022/12/24 01:09:14;;;;;;;;;;;11.50;99.90;;;;;;6246729;23;19900;-72
2022/12/24 01:11:40;;;;;;;;;;;11.50;99.90;;;;;;6247074;23;19970;-73
2022/12/24 01:14:05;;;;;;;;;;;11.70;99.90;;;;;;6246644;23;19900;-73
2022/12/24 01:16:31;;;;;;;;;;;11.80;99.90;;;;;;6246655;23;19906;-73
2022/12/24 01:18:56;;;;;;;;;;;11.80;99.90;;;;;;6246997;23;20222;-72
2022/12/24 01:21:22;;;;;;;;;;;11.90;99.90;;;;;;6246625;23;19899;-73
2022/12/24 01:23:47;;;;;;;;;;;11.80;99.90;;;;;;6246940;23;19903;-74
2022/12/24 01:26:13;;;;;;;;;;;11.90;99.90;;;;;;6246399;22;19950;-74
2022/12/24 01:28:39;;;;;;;;;;;11.90;99.90;;;;;;6246862;23;19960;-74
2022/12/24 01:31:11;;;;;;;;;;;11.90;99.90;;;;;;6246290;23;19899;-72
2022/12/24 01:33:37;;;;;;;;;;;11.90;99.90;;;;;;6247278;23;19903;-72
2022/12/24 01:36:02;;;;;;;;;;;11.90;99.90;;;;;;6246550;23;20401;-73
2022/12/24 01:38:28;;;;;;;;;;;11.90;99.90;;;;;;6247173;23;19899;-73
2022/12/24 01:43:38;;;;;;;;;;;11.80;99.90;;;;;;6246262;23;19910;-72
2022/12/24 01:46:06;;;;;;;;;;;11.80;99.90;;;;;;6246840;23;19900;-74
2022/12/24 01:48:39;;;;;;;;;;;11.70;99.90;;;;;;6246760;23;20328;-73
2022/12/24 01:51:04;;;;;;;;;;;11.70;99.90;;;;;;6246459;23;19906;-75
2022/12/24 01:53:30;;;;;;;;;;;11.70;99.90;;;;;;6246400;23;19900;-72
2022/12/24 01:55:56;;;;;;;;;;;11.70;99.90;;;;;;6247159;23;19906;-73
2022/12/24 01:58:23;;;;;;;;;;;11.70;99.90;;;;;;6246436;23;19900;-72
2022/12/24 02:00:48;;;;;;;;;;;11.80;99.90;;;;;;6246428;23;20313;-72
2022/12/24 02:03:14;;;;;;;;;;;11.90;99.90;;;;;;6246408;23;19900;-73
2022/12/24 02:05:39;;;;;;;;;;;11.80;99.90;;;;;;6247123;23;20318;-72
2022/12/24 02:08:06;;;;;;;;;;;11.90;99.90;;;;;;6246295;23;19935;-74
2022/12/24 02:10:31;;;;;;;;;;;11.90;99.90;;;;;;6246714;23;19935;-72
2022/12/24 02:12:58;;;;;;;;;;;11.80;99.90;;;;;;6246360;23;19927;-73
2022/12/24 02:15:24;;;;;;;;;;;11.80;99.90;;;;;;6247034;23;19900;-73
2022/12/24 02:17:52;;;;;;;;;;;11.90;99.90;;;;;;6219480;23;19899;-73
2022/12/24 02:20:21;;;;;;;;;;;11.90;99.90;;;;;;6247001;23;19904;-73
2022/12/24 02:22:55;;;;;;;;;;;11.90;99.90;;;;;;6246661;23;19915;-74
2022/12/24 02:25:31;;;;;;;;;;;11.90;99.90;;;;;;6246351;22;19974;-72
2022/12/24 02:28:29;;;;;;;;;;;11.80;99.90;;;;;;6246954;23;19903;-73
2022/12/24 02:30:59;;;;;;;;;;;11.90;99.90;;;;;;6163190;23;19907;-73
2022/12/24 02:33:28;;;;;;;;;;;11.90;99.90;;;;;;6247015;23;19910;-73
2022/12/24 02:35:59;;;;;;;;;;;12.00;99.90;;;;;;6246217;23;19906;-72
2022/12/24 02:38:24;;;;;;;;;;;11.90;99.90;;;;;;6246582;23;20314;-73
2022/12/24 02:41:06;;;;;;;;;;;11.80;99.90;;;;;;6246264;23;19922;-72
2022/12/24 02:43:34;;;;;;;;;;;11.80;99.90;;;;;;6247355;23;19899;-74
2022/12/24 02:46:03;;;;;;;;;;;11.70;99.90;;;;;;6248077;23;19935;-73
2022/12/24 02:48:29;;;;;;;;;;;11.70;99.90;;;;;;6247931;23;19903;-72
2022/12/24 02:51:01;;;;;;;;;;;11.70;99.90;;;;;;6248754;23;19900;-73
2022/12/24 02:53:26;;;;;;;;;;;11.60;99.90;;;;;;6248004;23;19900;-72
2022/12/24 02:56:07;;;;;;;;;;;11.70;99.90;;;;;;6248299;23;19900;-71
2022/12/24 02:58:51;;;;;;;;;;;11.80;99.90;;;;;;6248004;23;19899;-72
2022/12/24 03:01:35;;;;;;;;;;;11.80;99.90;;;;;;6247986;23;19948;-74
2022/12/24 03:04:19;;;;;;;;;;;11.90;99.90;;;;;;6247919;23;19982;-74
2022/12/24 03:06:44;;;;;;;;;;;11.80;99.90;;;;;;6248200;23;20234;-72
2022/12/24 03:09:13;;;;;;;;;;;11.80;99.90;;;;;;6247744;23;19903;-74
2022/12/24 03:11:45;;;;;;;;;;;11.80;99.90;;;;;;6248205;23;19978;-72
2022/12/24 03:14:11;;;;;;;;;;;11.90;99.90;;;;;;6247834;23;19900;-72
2022/12/24 03:16:37;;;;;;;;;;;11.90;99.90;;;;;;6247794;23;19900;-73
2022/12/24 03:19:02;;;;;;;;;;;12.00;99.90;;;;;;6247688;23;19906;-74
2022/12/24 03:21:31;;;;;;;;;;;12.00;99.90;;;;;;6247801;23;19910;-73
2022/12/24 03:23:56;;;;;;;;;;;12.00;99.90;;;;;;6220705;22;20238;-71
2022/12/24 03:26:23;;;;;;;;;;;12.00;99.90;;;;;;6247660;23;19907;-73
2022/12/24 03:28:49;;;;;;;;;;;11.90;99.90;;;;;;6247542;23;20219;-72
2022/12/24 03:31:15;;;;;;;;;;;11.90;99.90;;;;;;6247401;23;19961;-73
2022/12/24 03:33:41;;;;;;;;;;;11.90;99.90;;;;;;6248021;23;19928;-73
2022/12/24 03:36:07;;;;;;;;;;;11.90;99.90;;;;;;6247569;23;19938;-72
2022/12/24 03:38:32;;;;;;;;;;;11.90;99.90;;;;;;6247479;23;19900;-73
2022/12/24 03:40:58;;;;;;;;;;;11.70;99.90;;;;;;6220695;23;20348;-72
2022/12/24 03:43:24;;;;;;;;;;;11.70;99.90;;;;;;6247571;23;19930;-73
2022/12/24 03:45:49;;;;;;;;;;;11.60;99.90;;;;;;6248241;23;19899;-74
2022/12/24 03:48:15;;;;;;;;;;;11.60;99.90;;;;;;6247454;23;19911;-73
2022/12/24 03:50:40;;;;;;;;;;;11.60;99.90;;;;;;6247822;23;19899;-73
2022/12/24 03:53:06;;;;;;;;;;;11.60;99.90;;;;;;6247419;23;19899;-73
2022/12/24 03:55:31;;;;;;;;;;;11.60;99.90;;;;;;6247236;23;19900;-74
2022/12/24 03:57:57;;;;;;;;;;;11.60;99.90;;;;;;6247393;23;19906;-74
2022/12/24 04:00:22;;;;;;;;;;;11.60;99.90;;;;;;6247388;23;19906;-72
2022/12/24 04:02:48;;;;;;;;;;;11.60;99.90;;;;;;6247350;23;19931;-74
2022/12/24 04:05:14;;;;;;;;;;;11.60;99.90;;;;;;6247654;23;19947;-73
2022/12/24 04:07:40;;;;;;;;;;;11.60;99.90;;;;;;6247219;23;19910;-72
2022/12/24 04:10:06;;;;;;;;;;;11.60;99.90;;;;;;6247616;23;19973;-73
2022/12/24 04:12:31;;;;;;;;;;;11.60;99.90;;;;;;6247246;23;20301;-72
2022/12/24 04:14:57;;;;;;;;;;;11.50;99.90;;;;;;6247599;23;19906;-72
2022/12/24 04:17:22;;;;;;;;;;;11.50;99.90;;;;;;6247178;23;19923;-72
2022/12/24 04:19:48;;;;;;;;;;;11.50;99.90;;;;;;6247522;23;19981;-74
2022/12/24 04:22:13;;;;;;;;;;;11.50;99.90;;;;;;6247180;23;19899;-73
2022/12/24 04:24:39;;;;;;;;;;;11.60;99.90;;;;;;6247043;22;19906;-74
2022/12/24 04:27:04;;;;;;;;;;;11.60;99.90;;;;;;6220134;23;19900;-72
2022/12/24 04:29:30;;;;;;;;;;;11.60;99.90;;;;;;6247092;23;19951;-73
2022/12/24 04:31:55;;;;;;;;;;;11.70;99.90;;;;;;6247008;23;19911;-73
2022/12/24 04:34:21;;;;;;;;;;;11.70;99.90;;;;;;6247386;23;19980;-72
2022/12/24 04:36:46;;;;;;;;;;;11.80;99.90;;;;;;6246984;23;19978;-72
2022/12/24 04:39:12;;;;;;;;;;;11.70;99.90;;;;;;6247333;23;19906;-74
2022/12/24 04:41:37;;;;;;;;;;;11.90;99.90;;;;;;6246961;23;19904;-72
2022/12/24 04:44:03;;;;;;;;;;;11.80;99.90;;;;;;6246937;23;20322;-73
2022/12/24 04:46:32;;;;;;;;;;;11.80;99.90;;;;;;6246968;23;19899;-71
2022/12/24 04:48:58;;;;;;;;;;;11.70;99.90;;;;;;6247152;23;19907;-74
2022/12/24 04:51:24;;;;;;;;;;;11.70;99.90;;;;;;6246890;23;19907;-75
2022/12/24 04:53:50;;;;;;;;;;;11.70;99.90;;;;;;6247111;23;19977;-73
2022/12/24 04:56:17;;;;;;;;;;;11.70;99.90;;;;;;6247113;23;19899;-72
2022/12/24 04:58:43;;;;;;;;;;;11.70;99.90;;;;;;6246784;23;19923;-73
2022/12/24 05:01:12;;;;;;;;;;;11.70;99.90;;;;;;6246776;23;19903;-72
2022/12/24 05:03:38;;;;;;;;;;;11.70;99.90;;;;;;6247075;23;19903;-73
2022/12/24 05:06:04;;;;;;;;;;;11.80;99.90;;;;;;6246960;23;19946;-73
2022/12/24 05:08:30;;;;;;;;;;;11.80;99.90;;;;;;6246521;23;19910;-72
2022/12/24 05:10:56;;;;;;;;;;;11.90;99.90;;;;;;6247416;23;19974;-74
2022/12/24 05:13:21;;;;;;;;;;;11.80;99.90;;;;;;6246724;23;19900;-73
2022/12/24 05:15:47;;;;;;;;;;;11.80;99.90;;;;;;6247415;23;20302;-73
2022/12/24 05:18:13;;;;;;;;;;;11.80;99.90;;;;;;6246681;23;19899;-72
2022/12/24 05:20:39;;;;;;;;;;;11.70;99.90;;;;;;6246967;23;19900;-72
2022/12/24 05:28:33;;;;;;;;;;;11.70;99.90;;;;;;6246204;23;20346;-72
2022/12/24 05:30:58;;;;;;;;;;;11.60;99.90;;;;;;6246338;23;19900;-72
2022/12/24 05:33:24;;;;;;;;;;;11.60;99.90;;;;;;6246969;23;19904;-72
2022/12/24 05:35:50;;;;;;;;;;;11.60;99.90;;;;;;6246498;23;19899;-72
2022/12/24 05:38:16;;;;;;;;;;;11.70;99.90;;;;;;6246547;23;19978;-72
2022/12/24 05:40:42;;;;;;;;;;;11.60;99.90;;;;;;6246905;23;19907;-74
2022/12/24 05:43:08;;;;;;;;;;;11.70;99.90;;;;;;6219383;23;20367;-74
2022/12/24 05:45:33;;;;;;;;;;;11.70;99.90;;;;;;6246528;23;19899;-74
2022/12/24 05:47:59;;;;;;;;;;;11.80;99.90;;;;;;6246412;23;19939;-72
2022/12/24 05:50:24;;;;;;;;;;;11.80;99.90;;;;;;6246831;23;19899;-73
2022/12/24 05:52:50;;;;;;;;;;;11.90;99.90;;;;;;6246810;23;19903;-72
2022/12/24 05:55:15;;;;;;;;;;;12.00;99.90;;;;;;6247141;23;20233;-73
2022/12/24 05:57:41;;;;;;;;;;;11.90;99.90;;;;;;6246431;23;19906;-72
2022/12/24 06:00:07;;;;;;;;;;;11.90;99.90;;;;;;6246733;23;19938;-73
2022/12/24 06:02:32;;;;;;;;;;;11.90;99.90;;;;;;6246755;23;19974;-71
2022/12/24 06:04:58;;;;;;;;;;;12.00;99.90;;;;;;6247097;23;19998;-74
2022/12/24 06:07:23;;;;;;;;;;;11.90;99.90;;;;;;6246670;23;20301;-73
2022/12/24 06:09:49;;;;;;;;;;;12.00;99.90;;;;;;6246349;23;20326;-72
2022/12/24 06:12:14;;;;;;;;;;;11.90;99.90;;;;;;6247034;23;19907;-71
2022/12/24 06:14:40;;;;;;;;;;;11.80;99.90;;;;;;6246378;23;19899;-72
2022/12/24 06:17:05;;;;;;;;;;;11.80;99.90;;;;;;6246362;23;19906;-72
2022/12/24 06:19:31;;;;;;;;;;;11.80;99.90;;;;;;6248655;23;19903;-71
2022/12/24 06:21:56;;;;;;;;;;;11.80;99.90;;;;;;6248294;23;20327;-73
2022/12/24 06:24:22;;;;;;;;;;;11.70;99.90;;;;;;6248238;22;19907;-74
2022/12/24 06:26:47;;;;;;;;;;;11.80;99.90;;;;;;6248600;23;19904;-73
2022/12/24 06:29:13;;;;;;;;;;;11.70;99.90;;;;;;6248129;23;19910;-73
2022/12/24 06:31:39;;;;;;;;;;;11.70;99.90;;;;;;6248202;23;19911;-75
2022/12/24 06:34:04;;;;;;;;;;;11.60;99.90;;;;;;6221302;23;20397;-73
2022/12/24 06:36:30;;;;;;;;;;;11.60;99.90;;;;;;6248177;23;19900;-72
2022/12/24 06:38:55;;;;;;;;;;;11.60;99.90;;;;;;6248154;23;19948;-73
2022/12/24 06:41:21;;;;;;;;;;;11.60;99.90;;;;;;6248448;23;19974;-73
2022/12/24 06:43:48;;;;;;;;;;;11.60;99.90;;;;;;6248105;23;19901;-73
2022/12/24 06:46:14;;;;;;;;;;;11.50;99.90;;;;;;6248394;23;19907;-72
2022/12/24 06:48:39;;;;;;;;;;;11.50;99.90;;;;;;6247980;23;19903;-72
2022/12/24 06:51:05;;;;;;;;;;;11.50;99.90;;;;;;6248036;23;19899;-72
2022/12/24 06:53:31;;;;;;;;;;;11.50;99.90;;;;;;6248655;23;19899;-72
2022/12/24 06:56:06;;;;;;;;;;;11.50;99.90;;;;;;6247969;23;19915;-72
2022/12/24 06:58:32;;;;;;;;;;;11.50;99.90;;;;;;6248281;23;19900;-73
2022/12/24 07:01:00;;;;;;;;;;;11.60;99.90;;;;;;6248965;23;19903;-75
2022/12/24 07:03:26;;;;;;;;;;;11.60;99.90;;;;;;6247907;23;19900;-72
2022/12/24 07:05:52;;;;;;;;;;;11.60;99.90;;;;;;6248599;23;20359;-72
2022/12/24 07:08:17;;;;;;;;;;;11.50;99.90;;;;;;6247826;23;20002;-72
2022/12/24 07:10:43;;;;;;;;;;;11.40;99.90;;;;;;6247847;23;19900;-72
2022/12/24 07:13:09;;;;;;;;;;;11.40;99.90;;;;;;6248199;23;19993;-73
2022/12/24 07:15:34;;;;;;;;;;;11.40;99.90;;;;;;6247864;23;20274;-72
2022/12/24 07:18:00;;;;;;;;;;;11.50;99.90;;;;;;6247753;23;19900;-71
2022/12/24 07:20:25;;;;;;;;;;;11.40;99.90;;;;;;6248130;23;19903;-74
2022/12/24 07:22:51;;;;;;;;;;;11.50;99.90;;;;;;6220983;23;19903;-73
2022/12/24 07:25:16;;;;;;;;;;;11.50;99.90;;;;;;6247752;22;20254;-73
2022/12/24 07:27:42;;;;;;;;;;;11.60;99.90;;;;;;6247968;23;19918;-72
2022/12/24 07:30:08;;;;;;;;;;;11.60;99.90;;;;;;6247538;23;19907;-71
2022/12/24 07:32:33;;;;;;;;;;;11.60;99.90;;;;;;6247646;23;19995;-75
2022/12/24 07:34:59;;;;;;;;;;;11.70;99.90;;;;;;6247710;23;19930;-74
2022/12/24 07:37:24;;;;;;;;;;;11.80;99.90;;;;;;6247654;23;19926;-73
2022/12/24 07:39:50;;;;;;;;;;;11.80;99.90;;;;;;6247951;23;19900;-73
2022/12/24 07:42:15;;;;;;;;;;;11.80;99.90;;;;;;6247567;23;20226;-74
2022/12/24 07:44:41;;;;;;;;;;;11.90;99.90;;;;;;6247555;23;19900;-72
2022/12/24 07:47:06;;;;;;;;;;;11.90;99.90;;;;;;6247476;23;20326;-72
2022/12/24 07:49:32;;;;;;;;;;;11.80;99.90;;;;;;6247544;23;19900;-73
2022/12/24 07:51:57;;;;;;;;;;;11.90;99.90;;;;;;6247866;23;19910;-73
2022/12/24 07:54:23;;;;;;;;;;;11.80;99.90;;;;;;6247420;23;19938;-73
2022/12/24 07:56:48;;;;;;;;;;;11.70;99.90;;;;;;6247469;23;19970;-73
2022/12/24 07:59:14;;;;;;;;;;;11.70;99.90;;;;;;6248099;23;20372;-73
2022/12/24 08:01:40;;;;;;;;;;;11.80;99.90;;;;;;6247708;23;20337;-72
2022/12/24 08:04:05;;;;;;;;;;;11.80;99.90;;;;;;6247397;23;19953;-71
2022/12/24 08:06:31;;;;;;;;;;;11.70;99.90;;;;;;6220551;23;19923;-74
2022/12/24 08:08:56;;;;;;;;;;;11.70;99.90;;;;;;6247521;23;19962;-73
2022/12/24 08:11:22;;;;;;;;;;;11.70;99.90;;;;;;6247211;23;19978;-74
2022/12/24 08:13:47;;;;;;;;;;;11.80;99.90;;;;;;6247267;23;19904;-71
2022/12/24 08:16:13;;;;;;;;;;;11.80;99.90;;;;;;6247251;23;19906;-74
2022/12/24 08:18:39;;;;;;;;;;;11.80;99.90;;;;;;6247853;23;19899;-74
2022/12/24 08:21:08;;;;;;;;;;;11.90;99.90;;;;;;6247140;23;19899;-73
2022/12/24 08:23:34;;;;;;;;;;;11.90;99.90;;;;;;6247201;23;19974;-73
2022/12/24 08:26:00;;;;;;;;;;;12.00;99.90;;;;;;6246908;22;20262;-72
2022/12/24 08:28:25;;;;;;;;;;;12.10;99.90;;;;;;6247359;23;19908;-73
2022/12/24 08:30:51;;;;;;;;;;;12.10;99.90;;;;;;6247084;23;19974;-71
2022/12/24 08:33:17;;;;;;;;;;;12.10;99.90;;;;;;6246906;23;19912;-73
2022/12/24 08:35:47;;;;;;;;;;;12.20;99.90;;;;;;6247757;23;19899;-72
2022/12/24 08:38:12;;;;;;;;;;;12.30;99.90;;;;;;6247428;23;19899;-74
2022/12/24 08:40:37;;;;;;;;;;;12.20;99.90;;;;;;6246740;23;19950;-73
2022/12/24 08:43:03;;;;;;;;;;;12.30;99.90;;;;;;6220081;23;19900;-72
2022/12/24 08:45:29;;;;;;;;;;;12.20;99.90;;;;;;6247279;23;20337;-73
2022/12/24 08:47:54;;;;;;;;;;;12.30;99.90;;;;;;6246801;23;19908;-72
2022/12/24 08:50:20;;;;;;;;;;;12.30;99.90;;;;;;6247246;23;19907;-74
2022/12/24 08:52:45;;;;;;;;;;;12.30;99.90;;;;;;6246895;23;20216;-74
2022/12/24 08:55:10;;;;;;;;;;;12.40;99.90;;;;;;6247183;23;20273;-72
2022/12/24 08:57:36;;;;;;;;;;;12.40;99.90;;;;;;6246793;23;19906;-73
2022/12/24 09:00:04;;;;;;;;;;;12.30;99.90;;;;;;6246888;23;19907;-74
2022/12/24 09:02:29;;;;;;;;;;;12.50;99.90;;;;;;6247061;23;19969;-73
2022/12/24 09:04:55;;;;;;;;;;;12.50;99.90;;;;;;6246744;23;20318;-72
2022/12/24 09:07:20;;;;;;;;;;;12.50;99.90;;;;;;6246642;23;19990;-73
2022/12/24 09:09:46;;;;;;;;;;;12.50;99.90;;;;;;6247010;23;19982;-71
2022/12/24 09:12:11;;;;;;;;;;;12.60;99.90;;;;;;6246677;23;19900;-72
2022/12/24 09:14:37;;;;;;;;;;;12.60;99.90;;;;;;6246715;23;19900;-73
2022/12/24 09:17:02;;;;;;;;;;;12.60;99.90;;;;;;6246998;23;19900;-72
2022/12/24 09:19:28;;;;;;;;;;;12.70;99.90;;;;;;6246619;23;19904;-72
2022/12/24 09:21:53;;;;;;;;;;;12.70;99.90;;;;;;6246988;23;19904;-73
2022/12/24 09:24:19;;;;;;;;;;;12.80;99.90;;;;;;6246550;22;20284;-73
2022/12/24 09:26:48;;;;;;;;;;;12.90;99.90;;;;;;6246972;23;19903;-73
2022/12/24 09:29:14;;;;;;;;;;;13.00;99.90;;;;;;6219711;23;19903;-71
2022/12/24 09:31:39;;;;;;;;;;;13.10;99.90;;;;;;6246558;22;19915;-73
2022/12/24 09:34:05;;;;;;;;;;;13.20;99.90;;;;;;6246946;23;20281;-73
2022/12/24 09:36:30;;;;;;;;;;;13.30;99.90;;;;;;6246528;23;19974;-72
2022/12/24 09:38:56;;;;;;;;;;;13.40;99.90;;;;;;6246544;23;19899;-73
2022/12/24 09:41:21;;;;;;;;;;;13.40;99.90;;;;;;6246855;23;19900;-72
2022/12/24 09:43:51;;;;;;;;;;;13.40;99.90;;;;;;6246506;23;19907;-73
2022/12/24 09:46:31;;;;;;;;;;;13.40;99.90;;;;;;6246822;23;19922;-72
2022/12/24 09:49:01;;;;;;;;;;;13.40;99.90;;;;;;6246756;23;19950;-73
2022/12/24 09:51:26;;;;;;;;;;;13.40;99.90;;;;;;6246855;23;19923;-73
2022/12/24 09:54:12;;;;;;;;;;;13.50;99.90;;;;;;6247988;23;20314;-73
2022/12/24 09:56:39;;;;;;;;;;;13.50;99.90;;;;;;6248955;23;19907;-73
2022/12/24 09:59:08;;;;;;;;;;;13.50;99.90;;;;;;6248543;23;19907;-73
2022/12/24 10:01:34;;;;;;;;;;;13.50;99.90;;;;;;6248866;23;19900;-74
2022/12/24 10:04:03;;;;;;;;;;;13.50;99.90;;;;;;6248865;23;19982;-74
2022/12/24 10:06:38;;;;;;;;;;;13.60;99.90;;;;;;6249160;23;19947;-73
2022/12/24 10:09:09;;;;;;;;;;;13.50;99.90;;;;;;6248375;23;19910;-74
2022/12/24 10:11:57;;;;;;;;;;;13.60;99.90;;;;;;6248405;23;19974;-72
2022/12/24 10:14:32;;;;;;;;;;;13.60;99.90;;;;;;6248375;23;19900;-73
2022/12/24 10:17:00;;;;;;;;;;;13.70;99.90;;;;;;6248395;23;19906;-73
2022/12/24 10:19:36;;;;;;;;;;;13.70;99.90;;;;;;6248380;23;20238;-72
2022/12/24 10:22:07;;;;;;;;;;;13.70;99.90;;;;;;6248688;23;19899;-74
2022/12/24 10:24:57;;;;;;;;;;;13.80;99.90;;;;;;6248262;22;19900;-73
2022/12/24 10:27:25;;;;;;;;;;;13.80;99.90;;;;;;6248657;23;19903;-73
2022/12/24 10:29:58;;;;;;;;;;;13.80;99.90;;;;;;6248258;23;19900;-72
2022/12/24 10:32:26;;;;;;;;;;;13.90;99.90;;;;;;6248138;23;19911;-73
2022/12/24 10:35:01;;;;;;;;;;;14.00;99.90;;;;;;6221220;23;19983;-74
2022/12/24 10:37:27;;;;;;;;;;;14.20;99.90;;;;;;6248859;23;20376;-73
2022/12/24 10:39:54;;;;;;;;;;;14.30;99.90;;;;;;6248097;23;19900;-73
2022/12/24 10:42:20;;;;;;;;;;;14.30;99.90;;;;;;6248116;23;19949;-74
2022/12/24 10:44:48;;;;;;;;;;;14.30;99.90;;;;;;6248074;23;19934;-73
2022/12/24 10:47:15;;;;;;;;;;;14.30;99.90;;;;;;6248359;23;19900;-74
2022/12/24 10:49:51;;;;;;;;;;;14.20;99.90;;;;;;6248014;23;20262;-74
2022/12/24 10:52:20;;;;;;;;;;;14.30;99.90;;;;;;6248759;23;19904;-74
2022/12/24 10:55:04;;;;;;;;;;;14.30;99.90;;;;;;6248013;23;19934;-74
2022/12/24 10:57:29;;;;;;;;;;;14.40;99.90;;;;;;6248362;23;19900;-73
2022/12/24 10:59:55;;;;;;;;;;;14.50;99.90;;;;;;6247977;23;19923;-73
2022/12/24 11:02:27;;;;;;;;;;;14.50;99.90;;;;;;6247935;23;19899;-73
2022/12/24 11:04:52;;;;;;;;;;;14.50;99.90;;;;;;6247735;23;19900;-73
2022/12/24 11:07:19;;;;;;;;;;;14.50;99.90;;;;;;6247800;23;19910;-72
2022/12/24 11:09:53;;;;;;;;;;;14.50;99.90;;;;;;6248583;23;19950;-72
2022/12/24 11:12:21;;;;;;;;;;;14.50;99.90;;;;;;6247862;23;19903;-73
2022/12/24 11:14:47;;;;;;;;;;;14.40;99.90;;;;;;6247859;23;19899;-73
2022/12/24 11:17:19;;;;;;;;;;;14.20;99.90;;;;;;6248245;23;20234;-74
2022/12/24 11:19:47;;;;;;;;;;;14.10;99.90;;;;;;6247778;23;19906;-74
2022/12/24 11:22:17;;;;;;;;;;;14.00;99.90;;;;;;6247777;23;19906;-74
2022/12/24 11:24:43;;;;;;;;;;;14.10;99.90;;;;;;6247669;22;19907;-71
2022/12/24 11:27:27;;;;;;;;;;;14.30;99.90;;;;;;6248343;23;19903;-72
2022/12/24 11:30:10;;;;;;;;;;;14.40;99.90;;;;;;6247988;23;19986;-73
2022/12/24 11:32:36;;;;;;;;;;;14.30;99.90;;;;;;6247500;23;19950;-74
2022/12/24 11:35:05;;;;;;;;;;;14.30;99.90;;;;;;6247967;23;19899;-72
2022/12/24 11:37:30;;;;;;;;;;;14.40;99.90;;;;;;6247904;23;19907;-74
2022/12/24 11:39:58;;;;;;;;;;;14.30;99.90;;;;;;6247933;23;20226;-73
2022/12/24 11:42:30;;;;;;;;;;;14.40;99.90;;;;;;6247477;23;19946;-72
2022/12/24 11:44:56;;;;;;;;;;;14.50;99.90;;;;;;6247921;23;19899;-73
2022/12/24 11:47:40;;;;;;;;;;;14.50;99.90;;;;;;6247451;23;19978;-74
2022/12/24 11:50:24;;;;;;;;;;;14.60;99.90;;;;;;6248238;23;19938;-72
2022/12/24 11:53:01;;;;;;;;;;;14.60;99.90;;;;;;6247820;23;20237;-73
2022/12/24 11:55:38;;;;;;;;;;;14.70;99.90;;;;;;6247782;23;19899;-73
2022/12/24 11:58:04;;;;;;;;;;;14.50;99.90;;;;;;6247769;23;19899;-72
2022/12/24 12:00:29;;;;;;;;;;;14.50;99.90;;;;;;6247360;23;19906;-72
2022/12/24 12:02:58;;;;;;;;;;;14.40;99.90;;;;;;6247660;23;19900;-73
2022/12/24 12:05:30;;;;;;;;;;;14.40;99.90;;;;;;6247665;23;20234;-75
2022/12/24 12:08:12;;;;;;;;;;;14.50;99.90;;;;;;6247239;23;19904;-73
2022/12/24 12:10:39;;;;;;;;;;;14.50;99.90;;;;;;6248095;23;19923;-72
2022/12/24 12:13:13;;;;;;;;;;;14.50;99.90;;;;;;6247259;23;19900;-73
2022/12/24 12:15:48;;;;;;;;;;;14.60;99.90;;;;;;6247532;23;19911;-73
2022/12/24 12:18:25;;;;;;;;;;;15.00;99.90;;;;;;6247202;23;20238;-72
2022/12/24 12:20:56;;;;;;;;;;;15.30;99.90;;;;;;6247912;23;19900;-73
2022/12/24 12:23:46;;;;;;;;;;;15.40;99.90;;;;;;6247232;23;19899;-73
2022/12/24 12:26:16;;;;;;;;;;;15.50;99.90;;;;;;6247061;22;19949;-73
2022/12/24 12:28:42;;;;;;;;;;;15.50;99.90;;;;;;6248059;23;20298;-73
2022/12/24 12:31:07;;;;;;;;;;;15.50;99.90;;;;;;6246833;22;19899;-73
2022/12/24 12:33:36;;;;;;;;;;;15.60;99.90;;;;;;6247441;23;19957;-73
2022/12/24 12:36:02;;;;;;;;;;;15.70;99.90;;;;;;6246968;23;19900;-73
2022/12/24 12:38:28;;;;;;;;;;;15.80;99.90;;;;;;6220167;23;19908;-74
2022/12/24 12:41:12;;;;;;;;;;;15.60;99.90;;;;;;6247032;23;20014;-73
2022/12/24 12:43:56;;;;;;;;;;;15.40;99.90;;;;;;6246950;23;20284;-73
2022/12/24 12:46:24;;;;;;;;;;;15.40;99.90;;;;;;6246959;23;19900;-73
2022/12/24 12:48:59;;;;;;;;;;;15.50;99.90;;;;;;6246804;23;20354;-74
2022/12/24 12:51:27;;;;;;;;;;;15.60;99.90;;;;;;6247233;23;19899;-72
2022/12/24 12:54:04;;;;;;;;;;;15.50;99.90;;;;;;6247268;23;19900;-73
2022/12/24 12:56:30;;;;;;;;;;;15.30;99.90;;;;;;6247232;23;19899;-73
2022/12/24 12:59:14;;;;;;;;;;;15.10;99.90;;;;;;6246869;23;19899;-73
2022/12/24 13:01:51;;;;;;;;;;;14.80;99.90;;;;;;6247171;23;19899;-73
2022/12/24 13:04:35;;;;;;;;;;;14.40;99.90;;;;;;6246819;23;20306;-73
2022/12/24 13:07:20;;;;;;;;;;;14.30;99.90;;;;;;6219933;23;19899;-73
2022/12/24 13:09:54;;;;;;;;;;;14.30;99.90;;;;;;6247114;23;19903;-73
2022/12/24 13:12:58;;;;;;;;;;;14.20;99.90;;;;;;6247146;23;19946;-72
2022/12/24 13:15:39;;;;;;;;;;;14.10;99.90;;;;;;6095418;23;20232;-73
2022/12/24 13:18:23;;;;;;;;;;;14.20;99.90;;;;;;6096087;23;19901;-73
2022/12/24 13:20:49;;;;;;;;;;;14.20;99.90;;;;;;6199312;23;19907;-74
2022/12/24 13:23:17;;;;;;;;;;;14.10;99.90;;;;;;6246595;23;19934;-72
2022/12/24 13:25:47;;;;;;;;;;;14.00;99.90;;;;;;6246546;22;19900;-73
2022/12/24 13:28:16;;;;;;;;;;;13.90;99.90;;;;;;6247140;23;19910;-72
2022/12/24 13:30:42;;;;;;;;;;;14.00;99.90;;;;;;6246529;23;19907;-74
2022/12/24 13:33:11;;;;;;;;;;;14.10;99.90;;;;;;6246038;23;19911;-73
2022/12/24 13:35:55;;;;;;;;;;;14.20;99.90;;;;;;6246566;23;19903;-71
2022/12/24 13:38:26;;;;;;;;;;;14.30;99.90;;;;;;6247240;23;19900;-72
2022/12/24 13:40:53;;;;;;;;;;;14.40;99.90;;;;;;6246462;23;20337;-74
2022/12/24 13:43:19;;;;;;;;;;;14.40;99.90;;;;;;6219328;23;19994;-73
2022/12/24 13:45:49;;;;;;;;;;;14.40;99.90;;;;;;6247190;23;19900;-72
2022/12/24 13:48:14;;;;;;;;;;;14.50;99.90;;;;;;6246330;23;19903;-74
2022/12/24 13:50:45;;;;;;;;;;;14.30;99.90;;;;;;6246451;23;19905;-73
2022/12/24 13:53:30;;;;;;;;;;;14.20;99.90;;;;;;6246458;23;19900;-72
2022/12/24 13:56:01;;;;;;;;;;;14.10;99.90;;;;;;6219613;23;20237;-73
2022/12/24 13:58:27;;;;;;;;;;;13.90;99.90;;;;;;6247199;23;19954;-72
2022/12/24 14:01:04;;;;;;;;;;;13.70;99.90;;;;;;6246434;23;19900;-72
2022/12/24 14:03:50;;;;;;;;;;;13.50;99.90;;;;;;6246701;23;19966;-72
2022/12/24 14:06:23;;;;;;;;;;;13.50;99.90;;;;;;6246414;23;19899;-73
2022/12/24 14:08:51;;;;;;;;;;;13.60;99.90;;;;;;6246592;23;19949;-73
2022/12/24 14:11:18;;;;;;;;;;;13.80;99.90;;;;;;6246333;23;19913;-73
2022/12/24 14:13:50;;;;;;;;;;;13.70;99.90;;;;;;6246358;23;19906;-73
2022/12/24 14:16:22;;;;;;;;;;;13.60;99.90;;;;;;6246719;23;19906;-74
2022/12/24 14:19:01;;;;;;;;;;;13.80;99.90;;;;;;6246349;23;19900;-73
2022/12/24 14:21:35;;;;;;;;;;;13.90;99.90;;;;;;6246380;23;20349;-72
2022/12/24 14:24:02;;;;;;;;;;;13.90;99.90;;;;;;6246875;22;19899;-74
2022/12/24 14:26:35;;;;;;;;;;;13.70;99.90;;;;;;6246974;23;19903;-73
2022/12/24 14:29:00;;;;;;;;;;;13.70;99.90;;;;;;6246205;23;19903;-72
2022/12/24 14:31:26;;;;;;;;;;;13.70;99.90;;;;;;6246024;23;19983;-74
2022/12/24 14:34:03;;;;;;;;;;;13.70;99.90;;;;;;6246628;23;19942;-73